sensor_id;sensor_type;location;lat;lon;timestamp;P1;durP1;ratioP1;P2;durP2;ratioP2
68216;SDS011;55037;52.354;4.992;2023-07-13T00:00:52;14.80;;;4.00;;
68216;SDS011;55037;52.354;4.992;2023-07-13T00:03:19;23.20;;;4.15;;
68216;SDS011;55037;52.354;4.992;2023-07-13T00:05:47;16.25;;;3.92;;
68216;SDS011;55037;52.354;4.992;2023-07-13T00:08:24;17.70;;;3.27;;
68216;SDS011;55037;52.354;4.992;2023-07-13T00:10:52;18.50;;;3.38;;
68216;SDS011;55037;52.354;4.992;2023-07-13T00:13:21;16.58;;;4.40;;
68216;SDS011;55037;52.354;4.992;2023-07-13T00:15:48;20.13;;;3.80;;
68216;SDS011;55037;52.354;4.992;2023-07-13T00:18:16;22.38;;;4.60;;
68216;SDS011;55037;52.354;4.992;2023-07-13T00:20:43;20.27;;;3.70;;
68216;SDS011;55037;52.354;4.992;2023-07-13T00:23:11;25.75;;;5.28;;
68216;SDS011;55037;52.354;4.992;2023-07-13T00:25:38;20.17;;;5.05;;
68216;SDS011;55037;52.354;4.992;2023-07-13T00:28:06;20.30;;;3.95;;
68216;SDS011;55037;52.354;4.992;2023-07-13T00:30:33;21.02;;;4.40;;
68216;SDS011;55037;52.354;4.992;2023-07-13T00:33:00;25.60;;;4.07;;
68216;SDS011;55037;52.354;4.992;2023-07-13T00:35:43;15.80;;;3.25;;
68216;SDS011;55037;52.354;4.992;2023-07-13T00:38:11;18.75;;;3.65;;
68216;SDS011;55037;52.354;4.992;2023-07-13T00:40:39;23.83;;;4.10;;
68216;SDS011;55037;52.354;4.992;2023-07-13T00:43:15;20.58;;;3.55;;
68216;SDS011;55037;52.354;4.992;2023-07-13T00:48:13;15.45;;;3.92;;
68216;SDS011;55037;52.354;4.992;2023-07-13T00:50:48;23.10;;;4.28;;
68216;SDS011;55037;52.354;4.992;2023-07-13T00:53:18;15.23;;;3.15;;
68216;SDS011;55037;52.354;4.992;2023-07-13T00:55:47;17.17;;;4.05;;
68216;SDS011;55037;52.354;4.992;2023-07-13T00:58:16;21.17;;;4.60;;
68216;SDS011;55037;52.354;4.992;2023-07-13T01:00:44;17.10;;;3.03;;
68216;SDS011;55037;52.354;4.992;2023-07-13T01:03:13;20.38;;;4.32;;
68216;SDS011;55037;52.354;4.992;2023-07-13T01:05:41;21.73;;;4.75;;
68216;SDS011;55037;52.354;4.992;2023-07-13T01:08:10;18.73;;;4.22;;
68216;SDS011;55037;52.354;4.992;2023-07-13T01:10:37;20.90;;;3.50;;
68216;SDS011;55037;52.354;4.992;2023-07-13T01:13:08;15.77;;;3.50;;
68216;SDS011;55037;52.354;4.992;2023-07-13T01:15:38;20.65;;;3.78;;
68216;SDS011;55037;52.354;4.992;2023-07-13T01:18:09;16.55;;;3.58;;
68216;SDS011;55037;52.354;4.992;2023-07-13T01:20:41;12.88;;;3.08;;
68216;SDS011;55037;52.354;4.992;2023-07-13T01:23:14;14.77;;;2.63;;
68216;SDS011;55037;52.354;4.992;2023-07-13T01:25:41;11.70;;;2.47;;
68216;SDS011;55037;52.354;4.992;2023-07-13T01:28:08;8.50;;;1.95;;
68216;SDS011;55037;52.354;4.992;2023-07-13T01:30:38;8.63;;;2.65;;
68216;SDS011;55037;52.354;4.992;2023-07-13T01:33:07;10.88;;;2.80;;
68216;SDS011;55037;52.354;4.992;2023-07-13T01:35:36;12.70;;;2.60;;
68216;SDS011;55037;52.354;4.992;2023-07-13T01:38:04;11.95;;;2.22;;
68216;SDS011;55037;52.354;4.992;2023-07-13T01:40:32;6.40;;;2.00;;
68216;SDS011;55037;52.354;4.992;2023-07-13T01:42:59;7.20;;;2.10;;
68216;SDS011;55037;52.354;4.992;2023-07-13T01:45:27;13.70;;;2.33;;
68216;SDS011;55037;52.354;4.992;2023-07-13T01:47:55;6.83;;;2.00;;
68216;SDS011;55037;52.354;4.992;2023-07-13T01:50:23;9.38;;;2.40;;
68216;SDS011;55037;52.354;4.992;2023-07-13T01:52:52;5.53;;;1.65;;
68216;SDS011;55037;52.354;4.992;2023-07-13T01:55:20;4.70;;;1.70;;
68216;SDS011;55037;52.354;4.992;2023-07-13T01:57:48;8.20;;;2.00;;
68216;SDS011;55037;52.354;4.992;2023-07-13T02:00:16;5.10;;;1.70;;
68216;SDS011;55037;52.354;4.992;2023-07-13T02:02:48;11.07;;;2.30;;
68216;SDS011;55037;52.354;4.992;2023-07-13T02:05:16;8.77;;;1.67;;
68216;SDS011;55037;52.354;4.992;2023-07-13T02:07:44;6.10;;;1.80;;
68216;SDS011;55037;52.354;4.992;2023-07-13T02:10:11;6.65;;;1.80;;
68216;SDS011;55037;52.354;4.992;2023-07-13T02:12:40;5.83;;;1.67;;
68216;SDS011;55037;52.354;4.992;2023-07-13T02:15:08;7.45;;;1.77;;
68216;SDS011;55037;52.354;4.992;2023-07-13T02:17:36;5.57;;;1.60;;
68216;SDS011;55037;52.354;4.992;2023-07-13T02:20:04;3.10;;;1.75;;
68216;SDS011;55037;52.354;4.992;2023-07-13T02:22:32;9.13;;;2.60;;
68216;SDS011;55037;52.354;4.992;2023-07-13T02:24:59;5.83;;;2.27;;
68216;SDS011;55037;52.354;4.992;2023-07-13T02:27:27;6.55;;;1.50;;
68216;SDS011;55037;52.354;4.992;2023-07-13T02:29:54;5.55;;;1.98;;
68216;SDS011;55037;52.354;4.992;2023-07-13T02:32:22;9.90;;;1.67;;
68216;SDS011;55037;52.354;4.992;2023-07-13T02:34:51;7.25;;;1.70;;
68216;SDS011;55037;52.354;4.992;2023-07-13T02:37:19;9.63;;;1.80;;
68216;SDS011;55037;52.354;4.992;2023-07-13T02:39:48;6.53;;;1.80;;
68216;SDS011;55037;52.354;4.992;2023-07-13T02:42:15;8.77;;;1.70;;
68216;SDS011;55037;52.354;4.992;2023-07-13T02:44:44;6.55;;;1.70;;
68216;SDS011;55037;52.354;4.992;2023-07-13T02:47:11;4.13;;;2.10;;
68216;SDS011;55037;52.354;4.992;2023-07-13T02:49:39;4.00;;;1.30;;
68216;SDS011;55037;52.354;4.992;2023-07-13T02:52:07;9.15;;;1.88;;
68216;SDS011;55037;52.354;4.992;2023-07-13T02:54:34;6.80;;;1.98;;
68216;SDS011;55037;52.354;4.992;2023-07-13T02:57:02;4.05;;;1.73;;
68216;SDS011;55037;52.354;4.992;2023-07-13T02:59:29;7.22;;;1.90;;
68216;SDS011;55037;52.354;4.992;2023-07-13T03:01:57;3.97;;;1.70;;
68216;SDS011;55037;52.354;4.992;2023-07-13T03:04:24;7.22;;;2.00;;
68216;SDS011;55037;52.354;4.992;2023-07-13T03:06:52;9.35;;;1.85;;
68216;SDS011;55037;52.354;4.992;2023-07-13T03:09:19;6.10;;;1.83;;
68216;SDS011;55037;52.354;4.992;2023-07-13T03:11:54;7.68;;;1.95;;
68216;SDS011;55037;52.354;4.992;2023-07-13T03:14:28;6.90;;;1.60;;
68216;SDS011;55037;52.354;4.992;2023-07-13T03:16:58;5.00;;;1.60;;
68216;SDS011;55037;52.354;4.992;2023-07-13T03:19:29;10.15;;;2.92;;
68216;SDS011;55037;52.354;4.992;2023-07-13T03:21:56;6.38;;;2.22;;
68216;SDS011;55037;52.354;4.992;2023-07-13T03:24:24;5.53;;;1.80;;
68216;SDS011;55037;52.354;4.992;2023-07-13T03:26:53;6.63;;;1.80;;
68216;SDS011;55037;52.354;4.992;2023-07-13T03:29:21;3.22;;;1.65;;
68216;SDS011;55037;52.354;4.992;2023-07-13T03:31:48;6.25;;;1.88;;
68216;SDS011;55037;52.354;4.992;2023-07-13T03:34:15;12.32;;;2.53;;
68216;SDS011;55037;52.354;4.992;2023-07-13T03:36:43;6.53;;;1.95;;
68216;SDS011;55037;52.354;4.992;2023-07-13T03:39:12;8.50;;;2.17;;
68216;SDS011;55037;52.354;4.992;2023-07-13T03:41:53;3.90;;;1.42;;
68216;SDS011;55037;52.354;4.992;2023-07-13T03:44:21;4.85;;;1.70;;
68216;SDS011;55037;52.354;4.992;2023-07-13T03:46:53;8.52;;;1.70;;
68216;SDS011;55037;52.354;4.992;2023-07-13T03:49:21;5.55;;;1.70;;
68216;SDS011;55037;52.354;4.992;2023-07-13T03:51:48;5.10;;;1.83;;
68216;SDS011;55037;52.354;4.992;2023-07-13T03:54:19;5.88;;;1.90;;
68216;SDS011;55037;52.354;4.992;2023-07-13T03:56:47;6.43;;;2.17;;
68216;SDS011;55037;52.354;4.992;2023-07-13T03:59:16;6.63;;;2.22;;
68216;SDS011;55037;52.354;4.992;2023-07-13T04:01:45;4.78;;;1.80;;
68216;SDS011;55037;52.354;4.992;2023-07-13T04:04:12;6.47;;;1.50;;
68216;SDS011;55037;52.354;4.992;2023-07-13T04:06:40;4.82;;;1.83;;
68216;SDS011;55037;52.354;4.992;2023-07-13T04:09:07;4.60;;;1.70;;
68216;SDS011;55037;52.354;4.992;2023-07-13T04:11:36;3.60;;;1.65;;
68216;SDS011;55037;52.354;4.992;2023-07-13T04:14:03;7.85;;;2.13;;
68216;SDS011;55037;52.354;4.992;2023-07-13T04:16:31;6.73;;;2.07;;
68216;SDS011;55037;52.354;4.992;2023-07-13T04:18:59;5.38;;;1.80;;
68216;SDS011;55037;52.354;4.992;2023-07-13T04:21:28;6.90;;;2.55;;
68216;SDS011;55037;52.354;4.992;2023-07-13T04:23:57;6.03;;;1.75;;
68216;SDS011;55037;52.354;4.992;2023-07-13T04:26:25;8.63;;;2.72;;
68216;SDS011;55037;52.354;4.992;2023-07-13T04:28:52;8.33;;;1.77;;
68216;SDS011;55037;52.354;4.992;2023-07-13T04:31:20;5.18;;;1.92;;
68216;SDS011;55037;52.354;4.992;2023-07-13T04:33:48;9.48;;;2.00;;
68216;SDS011;55037;52.354;4.992;2023-07-13T04:36:15;9.20;;;2.17;;
68216;SDS011;55037;52.354;4.992;2023-07-13T04:38:43;8.50;;;2.08;;
68216;SDS011;55037;52.354;4.992;2023-07-13T04:41:11;7.53;;;2.50;;
68216;SDS011;55037;52.354;4.992;2023-07-13T04:43:41;9.13;;;2.35;;
68216;SDS011;55037;52.354;4.992;2023-07-13T04:46:09;9.60;;;2.30;;
68216;SDS011;55037;52.354;4.992;2023-07-13T04:48:39;10.00;;;2.38;;
68216;SDS011;55037;52.354;4.992;2023-07-13T04:51:07;6.13;;;2.20;;
68216;SDS011;55037;52.354;4.992;2023-07-13T04:53:34;9.83;;;2.60;;
68216;SDS011;55037;52.354;4.992;2023-07-13T04:56:05;7.63;;;2.40;;
68216;SDS011;55037;52.354;4.992;2023-07-13T04:58:32;9.77;;;2.28;;
68216;SDS011;55037;52.354;4.992;2023-07-13T05:01:01;9.95;;;2.88;;
68216;SDS011;55037;52.354;4.992;2023-07-13T05:03:30;8.10;;;2.40;;
68216;SDS011;55037;52.354;4.992;2023-07-13T05:06:01;10.10;;;2.73;;
68216;SDS011;55037;52.354;4.992;2023-07-13T05:08:30;12.48;;;3.35;;
68216;SDS011;55037;52.354;4.992;2023-07-13T05:11:04;12.05;;;3.30;;
68216;SDS011;55037;52.354;4.992;2023-07-13T05:13:32;15.18;;;3.17;;
68216;SDS011;55037;52.354;4.992;2023-07-13T05:16:00;20.90;;;3.65;;
68216;SDS011;55037;52.354;4.992;2023-07-13T05:18:30;10.47;;;3.27;;
68216;SDS011;55037;52.354;4.992;2023-07-13T05:21:07;12.55;;;3.05;;
68216;SDS011;55037;52.354;4.992;2023-07-13T05:23:36;9.40;;;2.90;;
68216;SDS011;55037;52.354;4.992;2023-07-13T05:26:04;6.85;;;2.70;;
68216;SDS011;55037;52.354;4.992;2023-07-13T05:28:35;10.07;;;2.95;;
68216;SDS011;55037;52.354;4.992;2023-07-13T05:31:04;10.10;;;2.97;;
68216;SDS011;55037;52.354;4.992;2023-07-13T05:33:34;10.48;;;2.95;;
68216;SDS011;55037;52.354;4.992;2023-07-13T05:36:01;10.40;;;2.85;;
68216;SDS011;55037;52.354;4.992;2023-07-13T05:38:29;15.18;;;4.47;;
68216;SDS011;55037;52.354;4.992;2023-07-13T05:40:57;17.30;;;3.92;;
68216;SDS011;55037;52.354;4.992;2023-07-13T05:43:24;11.83;;;3.27;;
68216;SDS011;55037;52.354;4.992;2023-07-13T05:45:55;12.57;;;3.88;;
68216;SDS011;55037;52.354;4.992;2023-07-13T05:48:23;20.23;;;4.35;;
68216;SDS011;55037;52.354;4.992;2023-07-13T05:50:51;12.57;;;3.38;;
68216;SDS011;55037;52.354;4.992;2023-07-13T05:53:18;10.27;;;3.10;;
68216;SDS011;55037;52.354;4.992;2023-07-13T05:55:48;17.20;;;4.00;;
68216;SDS011;55037;52.354;4.992;2023-07-13T05:58:17;11.35;;;3.10;;
68216;SDS011;55037;52.354;4.992;2023-07-13T06:00:46;10.48;;;3.65;;
68216;SDS011;55037;52.354;4.992;2023-07-13T06:03:14;12.13;;;3.45;;
68216;SDS011;55037;52.354;4.992;2023-07-13T06:05:42;9.75;;;3.25;;
68216;SDS011;55037;52.354;4.992;2023-07-13T06:08:09;11.13;;;2.77;;
68216;SDS011;55037;52.354;4.992;2023-07-13T06:10:37;15.65;;;3.47;;
68216;SDS011;55037;52.354;4.992;2023-07-13T06:13:04;18.20;;;4.15;;
68216;SDS011;55037;52.354;4.992;2023-07-13T06:15:32;13.18;;;3.65;;
68216;SDS011;55037;52.354;4.992;2023-07-13T06:18:00;16.20;;;3.80;;
68216;SDS011;55037;52.354;4.992;2023-07-13T06:20:27;15.17;;;3.43;;
68216;SDS011;55037;52.354;4.992;2023-07-13T06:22:55;12.77;;;3.10;;
68216;SDS011;55037;52.354;4.992;2023-07-13T06:25:23;14.75;;;3.20;;
68216;SDS011;55037;52.354;4.992;2023-07-13T06:27:50;12.35;;;3.17;;
68216;SDS011;55037;52.354;4.992;2023-07-13T06:30:18;8.63;;;3.80;;
68216;SDS011;55037;52.354;4.992;2023-07-13T06:32:45;8.93;;;2.77;;
68216;SDS011;55037;52.354;4.992;2023-07-13T06:35:12;10.55;;;2.85;;
68216;SDS011;55037;52.354;4.992;2023-07-13T06:37:40;10.73;;;3.22;;
68216;SDS011;55037;52.354;4.992;2023-07-13T06:40:08;11.15;;;2.70;;
68216;SDS011;55037;52.354;4.992;2023-07-13T06:42:36;8.95;;;3.15;;
68216;SDS011;55037;52.354;4.992;2023-07-13T06:45:05;9.23;;;2.90;;
68216;SDS011;55037;52.354;4.992;2023-07-13T06:47:33;9.55;;;2.58;;
68216;SDS011;55037;52.354;4.992;2023-07-13T06:50:00;8.43;;;2.58;;
68216;SDS011;55037;52.354;4.992;2023-07-13T06:52:28;11.57;;;3.22;;
68216;SDS011;55037;52.354;4.992;2023-07-13T06:54:55;4.28;;;2.30;;
68216;SDS011;55037;52.354;4.992;2023-07-13T06:57:23;6.77;;;2.23;;
68216;SDS011;55037;52.354;4.992;2023-07-13T06:59:50;7.57;;;2.20;;
68216;SDS011;55037;52.354;4.992;2023-07-13T07:02:17;9.82;;;2.88;;
68216;SDS011;55037;52.354;4.992;2023-07-13T07:04:45;6.70;;;2.97;;
68216;SDS011;55037;52.354;4.992;2023-07-13T07:07:12;9.50;;;2.85;;
68216;SDS011;55037;52.354;4.992;2023-07-13T07:09:39;8.30;;;2.50;;
68216;SDS011;55037;52.354;4.992;2023-07-13T07:12:07;6.18;;;2.88;;
68216;SDS011;55037;52.354;4.992;2023-07-13T07:14:35;5.97;;;2.35;;
68216;SDS011;55037;52.354;4.992;2023-07-13T07:17:02;8.77;;;2.28;;
68216;SDS011;55037;52.354;4.992;2023-07-13T07:19:32;7.25;;;3.38;;
68216;SDS011;55037;52.354;4.992;2023-07-13T07:22:01;9.67;;;2.93;;
68216;SDS011;55037;52.354;4.992;2023-07-13T07:24:28;6.20;;;2.83;;
68216;SDS011;55037;52.354;4.992;2023-07-13T07:26:56;9.90;;;3.42;;
68216;SDS011;55037;52.354;4.992;2023-07-13T07:29:26;8.20;;;2.50;;
68216;SDS011;55037;52.354;4.992;2023-07-13T07:31:58;8.88;;;2.50;;
68216;SDS011;55037;52.354;4.992;2023-07-13T07:34:44;8.23;;;2.57;;
68216;SDS011;55037;52.354;4.992;2023-07-13T07:37:12;6.18;;;2.08;;
68216;SDS011;55037;52.354;4.992;2023-07-13T07:39:43;4.95;;;2.33;;
68216;SDS011;55037;52.354;4.992;2023-07-13T07:42:31;9.70;;;2.60;;
68216;SDS011;55037;52.354;4.992;2023-07-13T07:44:59;9.57;;;2.72;;
68216;SDS011;55037;52.354;4.992;2023-07-13T07:47:28;8.97;;;2.57;;
68216;SDS011;55037;52.354;4.992;2023-07-13T07:49:57;3.65;;;2.13;;
68216;SDS011;55037;52.354;4.992;2023-07-13T07:52:24;6.97;;;2.22;;
68216;SDS011;55037;52.354;4.992;2023-07-13T07:54:52;9.10;;;2.22;;
68216;SDS011;55037;52.354;4.992;2023-07-13T07:57:22;9.35;;;2.38;;
68216;SDS011;55037;52.354;4.992;2023-07-13T07:59:52;8.10;;;2.63;;
68216;SDS011;55037;52.354;4.992;2023-07-13T08:02:23;12.57;;;2.80;;
68216;SDS011;55037;52.354;4.992;2023-07-13T08:04:54;7.20;;;2.30;;
68216;SDS011;55037;52.354;4.992;2023-07-13T08:07:25;7.72;;;2.50;;
68216;SDS011;55037;52.354;4.992;2023-07-13T08:09:52;8.52;;;2.85;;
68216;SDS011;55037;52.354;4.992;2023-07-13T08:12:20;9.70;;;2.70;;
68216;SDS011;55037;52.354;4.992;2023-07-13T08:14:50;8.18;;;2.20;;
68216;SDS011;55037;52.354;4.992;2023-07-13T08:17:20;4.35;;;2.20;;
68216;SDS011;55037;52.354;4.992;2023-07-13T08:19:47;6.60;;;1.95;;
68216;SDS011;55037;52.354;4.992;2023-07-13T08:22:15;5.88;;;2.35;;
68216;SDS011;55037;52.354;4.992;2023-07-13T08:24:42;7.33;;;2.23;;
68216;SDS011;55037;52.354;4.992;2023-07-13T08:27:11;6.65;;;2.05;;
68216;SDS011;55037;52.354;4.992;2023-07-13T08:29:38;8.15;;;2.67;;
68216;SDS011;55037;52.354;4.992;2023-07-13T08:32:06;6.47;;;2.60;;
68216;SDS011;55037;52.354;4.992;2023-07-13T08:34:36;9.05;;;2.72;;
68216;SDS011;55037;52.354;4.992;2023-07-13T08:37:04;5.57;;;2.30;;
68216;SDS011;55037;52.354;4.992;2023-07-13T08:39:31;5.32;;;2.15;;
68216;SDS011;55037;52.354;4.992;2023-07-13T08:42:01;10.13;;;2.88;;
68216;SDS011;55037;52.354;4.992;2023-07-13T08:47:27;8.13;;;2.20;;
68216;SDS011;55037;52.354;4.992;2023-07-13T08:49:58;8.27;;;2.87;;
68216;SDS011;55037;52.354;4.992;2023-07-13T08:52:38;5.53;;;2.35;;
68216;SDS011;55037;52.354;4.992;2023-07-13T08:55:14;6.53;;;2.38;;
68216;SDS011;55037;52.354;4.992;2023-07-13T08:57:50;7.90;;;2.53;;
68216;SDS011;55037;52.354;4.992;2023-07-13T09:00:23;6.82;;;2.80;;
68216;SDS011;55037;52.354;4.992;2023-07-13T09:03:01;9.70;;;2.40;;
68216;SDS011;55037;52.354;4.992;2023-07-13T09:05:30;5.97;;;2.10;;
68216;SDS011;55037;52.354;4.992;2023-07-13T09:08:08;9.55;;;2.63;;
68216;SDS011;55037;52.354;4.992;2023-07-13T09:10:44;8.52;;;2.45;;
68216;SDS011;55037;52.354;4.992;2023-07-13T09:13:27;7.85;;;2.75;;
68216;SDS011;55037;52.354;4.992;2023-07-13T09:16:06;4.70;;;2.33;;
68216;SDS011;55037;52.354;4.992;2023-07-13T09:18:56;8.57;;;2.58;;
68216;SDS011;55037;52.354;4.992;2023-07-13T09:21:30;8.27;;;2.50;;
68216;SDS011;55037;52.354;4.992;2023-07-13T09:24:03;8.23;;;2.75;;
68216;SDS011;55037;52.354;4.992;2023-07-13T09:26:55;7.95;;;2.88;;
68216;SDS011;55037;52.354;4.992;2023-07-13T09:29:29;3.60;;;1.70;;
68216;SDS011;55037;52.354;4.992;2023-07-13T09:32:02;6.55;;;2.17;;
68216;SDS011;55037;52.354;4.992;2023-07-13T09:34:33;6.45;;;3.13;;
68216;SDS011;55037;52.354;4.992;2023-07-13T09:37:01;8.73;;;3.00;;
68216;SDS011;55037;52.354;4.992;2023-07-13T09:39:39;6.70;;;3.17;;
68216;SDS011;55037;52.354;4.992;2023-07-13T09:44:50;8.02;;;2.85;;
68216;SDS011;55037;52.354;4.992;2023-07-13T09:47:37;7.93;;;3.55;;
68216;SDS011;55037;52.354;4.992;2023-07-13T09:50:07;8.50;;;3.47;;
68216;SDS011;55037;52.354;4.992;2023-07-13T09:52:48;7.10;;;2.97;;
68216;SDS011;55037;52.354;4.992;2023-07-13T09:55:27;8.20;;;3.43;;
68216;SDS011;55037;52.354;4.992;2023-07-13T09:58:20;8.45;;;3.20;;
68216;SDS011;55037;52.354;4.992;2023-07-13T10:01:08;7.68;;;3.25;;
68216;SDS011;55037;52.354;4.992;2023-07-13T10:03:36;6.90;;;2.67;;
68216;SDS011;55037;52.354;4.992;2023-07-13T10:06:14;6.05;;;3.10;;
68216;SDS011;55037;52.354;4.992;2023-07-13T10:08:46;10.40;;;2.30;;
68216;SDS011;55037;52.354;4.992;2023-07-13T10:11:21;6.95;;;2.72;;
68216;SDS011;55037;52.354;4.992;2023-07-13T10:13:54;7.03;;;3.13;;
68216;SDS011;55037;52.354;4.992;2023-07-13T10:16:24;6.07;;;2.67;;
68216;SDS011;55037;52.354;4.992;2023-07-13T10:18:55;6.57;;;2.90;;
68216;SDS011;55037;52.354;4.992;2023-07-13T10:21:42;9.13;;;3.00;;
68216;SDS011;55037;52.354;4.992;2023-07-13T10:24:30;4.40;;;2.20;;
68216;SDS011;55037;52.354;4.992;2023-07-13T10:29:43;6.10;;;2.13;;
68216;SDS011;55037;52.354;4.992;2023-07-13T10:32:22;6.18;;;2.88;;
68216;SDS011;55037;52.354;4.992;2023-07-13T10:34:51;10.47;;;3.07;;
68216;SDS011;55037;52.354;4.992;2023-07-13T10:37:22;7.43;;;2.97;;
68216;SDS011;55037;52.354;4.992;2023-07-13T10:39:54;7.28;;;3.20;;
68216;SDS011;55037;52.354;4.992;2023-07-13T10:42:27;7.90;;;3.05;;
68216;SDS011;55037;52.354;4.992;2023-07-13T10:45:02;6.18;;;3.08;;
68216;SDS011;55037;52.354;4.992;2023-07-13T10:47:39;9.43;;;2.77;;
68216;SDS011;55037;52.354;4.992;2023-07-13T10:50:08;8.02;;;3.10;;
68216;SDS011;55037;52.354;4.992;2023-07-13T10:52:46;6.82;;;3.10;;
68216;SDS011;55037;52.354;4.992;2023-07-13T11:01:08;7.57;;;3.30;;
68216;SDS011;55037;52.354;4.992;2023-07-13T11:03:54;9.52;;;3.25;;
68216;SDS011;55037;52.354;4.992;2023-07-13T11:09:18;7.70;;;3.13;;
68216;SDS011;55037;52.354;4.992;2023-07-13T11:20:09;7.95;;;3.28;;
68216;SDS011;55037;52.354;4.992;2023-07-13T11:33:27;8.70;;;3.28;;
68216;SDS011;55037;52.354;4.992;2023-07-13T11:38:47;8.77;;;2.92;;
68216;SDS011;55037;52.354;4.992;2023-07-13T11:41:37;6.20;;;3.20;;
68216;SDS011;55037;52.354;4.992;2023-07-13T11:44:11;9.35;;;3.42;;
68216;SDS011;55037;52.354;4.992;2023-07-13T11:46:48;7.10;;;3.67;;
68216;SDS011;55037;52.354;4.992;2023-07-13T11:49:22;8.02;;;2.97;;
68216;SDS011;55037;52.354;4.992;2023-07-13T11:51:54;7.40;;;3.38;;
68216;SDS011;55037;52.354;4.992;2023-07-13T11:54:24;8.27;;;3.60;;
68216;SDS011;55037;52.354;4.992;2023-07-13T11:57:00;9.77;;;3.40;;
68216;SDS011;55037;52.354;4.992;2023-07-13T11:59:36;9.77;;;3.50;;
68216;SDS011;55037;52.354;4.992;2023-07-13T12:02:50;4.63;;;2.88;;
68216;SDS011;55037;52.354;4.992;2023-07-13T12:05:00;6.35;;;2.95;;
68216;SDS011;55037;52.354;4.992;2023-07-13T12:07:31;6.53;;;2.90;;
68216;SDS011;55037;52.354;4.992;2023-07-13T12:10:01;6.90;;;3.10;;
68216;SDS011;55037;52.354;4.992;2023-07-13T12:12:30;7.25;;;3.30;;
68216;SDS011;55037;52.354;4.992;2023-07-13T12:14:58;6.28;;;3.10;;
68216;SDS011;55037;52.354;4.992;2023-07-13T12:17:26;7.80;;;3.40;;
68216;SDS011;55037;52.354;4.992;2023-07-13T12:19:54;6.87;;;2.90;;
68216;SDS011;55037;52.354;4.992;2023-07-13T12:22:22;5.82;;;3.20;;
68216;SDS011;55037;52.354;4.992;2023-07-13T12:24:50;7.82;;;3.05;;
68216;SDS011;55037;52.354;4.992;2023-07-13T12:27:20;7.55;;;3.03;;
68216;SDS011;55037;52.354;4.992;2023-07-13T12:29:52;5.97;;;3.10;;
68216;SDS011;55037;52.354;4.992;2023-07-13T12:32:27;9.10;;;3.10;;
68216;SDS011;55037;52.354;4.992;2023-07-13T12:35:16;7.40;;;3.42;;
68216;SDS011;55037;52.354;4.992;2023-07-13T12:37:49;8.00;;;3.50;;
68216;SDS011;55037;52.354;4.992;2023-07-13T12:40:19;7.13;;;3.30;;
68216;SDS011;55037;52.354;4.992;2023-07-13T12:42:51;7.88;;;3.67;;
68216;SDS011;55037;52.354;4.992;2023-07-13T12:45:23;6.83;;;3.40;;
68216;SDS011;55037;52.354;4.992;2023-07-13T12:47:55;7.07;;;2.90;;
68216;SDS011;55037;52.354;4.992;2023-07-13T12:50:39;8.95;;;3.60;;
68216;SDS011;55037;52.354;4.992;2023-07-13T12:53:14;8.52;;;3.45;;
68216;SDS011;55037;52.354;4.992;2023-07-13T12:55:53;9.15;;;3.40;;
68216;SDS011;55037;52.354;4.992;2023-07-13T12:58:26;6.73;;;3.50;;
68216;SDS011;55037;52.354;4.992;2023-07-13T13:00:56;7.25;;;3.15;;
68216;SDS011;55037;52.354;4.992;2023-07-13T13:06:00;6.95;;;3.08;;
68216;SDS011;55037;52.354;4.992;2023-07-13T13:08:50;8.65;;;3.55;;
68216;SDS011;55037;52.354;4.992;2023-07-13T13:11:22;7.13;;;3.40;;
68216;SDS011;55037;52.354;4.992;2023-07-13T13:13:50;9.98;;;3.50;;
68216;SDS011;55037;52.354;4.992;2023-07-13T13:16:21;7.95;;;3.78;;
68216;SDS011;55037;52.354;4.992;2023-07-13T13:19:13;10.80;;;3.80;;
68216;SDS011;55037;52.354;4.992;2023-07-13T13:21:42;7.97;;;3.10;;
68216;SDS011;55037;52.354;4.992;2023-07-13T13:24:11;8.00;;;3.40;;
68216;SDS011;55037;52.354;4.992;2023-07-13T13:26:40;6.40;;;3.63;;
68216;SDS011;55037;52.354;4.992;2023-07-13T13:29:18;6.68;;;3.40;;
68216;SDS011;55037;52.354;4.992;2023-07-13T13:31:51;4.90;;;2.50;;
68216;SDS011;55037;52.354;4.992;2023-07-13T13:34:23;7.60;;;3.20;;
68216;SDS011;55037;52.354;4.992;2023-07-13T13:36:51;6.90;;;3.63;;
68216;SDS011;55037;52.354;4.992;2023-07-13T13:39:25;5.95;;;2.60;;
68216;SDS011;55037;52.354;4.992;2023-07-13T13:41:59;3.83;;;2.72;;
68216;SDS011;55037;52.354;4.992;2023-07-13T13:44:29;9.18;;;4.20;;
68216;SDS011;55037;52.354;4.992;2023-07-13T13:46:56;6.22;;;3.20;;
68216;SDS011;55037;52.354;4.992;2023-07-13T13:49:25;5.40;;;2.77;;
68216;SDS011;55037;52.354;4.992;2023-07-13T13:51:53;6.22;;;2.53;;
68216;SDS011;55037;52.354;4.992;2023-07-13T13:54:21;5.40;;;2.70;;
68216;SDS011;55037;52.354;4.992;2023-07-13T13:56:51;4.43;;;2.50;;
68216;SDS011;55037;52.354;4.992;2023-07-13T13:59:19;7.90;;;3.45;;
68216;SDS011;55037;52.354;4.992;2023-07-13T14:01:47;6.30;;;2.87;;
68216;SDS011;55037;52.354;4.992;2023-07-13T14:04:17;6.55;;;3.45;;
68216;SDS011;55037;52.354;4.992;2023-07-13T14:06:46;7.32;;;3.38;;
68216;SDS011;55037;52.354;4.992;2023-07-13T14:09:15;8.15;;;3.50;;
68216;SDS011;55037;52.354;4.992;2023-07-13T14:11:46;6.65;;;3.38;;
68216;SDS011;55037;52.354;4.992;2023-07-13T14:14:21;6.00;;;2.83;;
68216;SDS011;55037;52.354;4.992;2023-07-13T14:16:50;6.80;;;2.90;;
68216;SDS011;55037;52.354;4.992;2023-07-13T14:19:21;5.00;;;3.08;;
68216;SDS011;55037;52.354;4.992;2023-07-13T14:21:49;7.32;;;3.13;;
68216;SDS011;55037;52.354;4.992;2023-07-13T14:24:19;5.05;;;2.53;;
68216;SDS011;55037;52.354;4.992;2023-07-13T14:26:48;5.53;;;2.67;;
68216;SDS011;55037;52.354;4.992;2023-07-13T14:29:18;8.63;;;3.88;;
68216;SDS011;55037;52.354;4.992;2023-07-13T14:31:50;5.57;;;2.92;;
68216;SDS011;55037;52.354;4.992;2023-07-13T14:34:18;6.68;;;2.85;;
68216;SDS011;55037;52.354;4.992;2023-07-13T14:36:47;5.80;;;2.70;;
68216;SDS011;55037;52.354;4.992;2023-07-13T14:39:17;5.20;;;2.87;;
68216;SDS011;55037;52.354;4.992;2023-07-13T14:41:50;5.72;;;2.88;;
68216;SDS011;55037;52.354;4.992;2023-07-13T14:44:29;5.68;;;2.83;;
68216;SDS011;55037;52.354;4.992;2023-07-13T14:46:58;4.47;;;2.92;;
68216;SDS011;55037;52.354;4.992;2023-07-13T14:49:38;5.28;;;3.08;;
68216;SDS011;55037;52.354;4.992;2023-07-13T14:52:10;6.07;;;2.73;;
68216;SDS011;55037;52.354;4.992;2023-07-13T14:54:45;6.65;;;3.13;;
68216;SDS011;55037;52.354;4.992;2023-07-13T14:57:14;6.20;;;2.72;;
68216;SDS011;55037;52.354;4.992;2023-07-13T14:59:46;4.53;;;3.08;;
68216;SDS011;55037;52.354;4.992;2023-07-13T15:02:15;6.60;;;3.10;;
68216;SDS011;55037;52.354;4.992;2023-07-13T15:04:53;4.50;;;3.03;;
68216;SDS011;55037;52.354;4.992;2023-07-13T15:07:21;5.93;;;2.45;;
68216;SDS011;55037;52.354;4.992;2023-07-13T15:09:50;3.90;;;2.60;;
68216;SDS011;55037;52.354;4.992;2023-07-13T15:12:18;4.72;;;2.83;;
68216;SDS011;55037;52.354;4.992;2023-07-13T15:14:48;5.22;;;2.85;;
68216;SDS011;55037;52.354;4.992;2023-07-13T15:17:36;6.93;;;2.70;;
68216;SDS011;55037;52.354;4.992;2023-07-13T15:22:50;4.75;;;2.85;;
68216;SDS011;55037;52.354;4.992;2023-07-13T15:25:19;4.85;;;2.92;;
68216;SDS011;55037;52.354;4.992;2023-07-13T15:27:48;4.57;;;2.50;;
68216;SDS011;55037;52.354;4.992;2023-07-13T15:30:16;5.07;;;2.90;;
68216;SDS011;55037;52.354;4.992;2023-07-13T15:32:44;5.40;;;3.08;;
68216;SDS011;55037;52.354;4.992;2023-07-13T15:35:13;6.97;;;3.13;;
68216;SDS011;55037;52.354;4.992;2023-07-13T15:37:42;6.15;;;2.92;;
68216;SDS011;55037;52.354;4.992;2023-07-13T15:40:11;4.88;;;2.78;;
68216;SDS011;55037;52.354;4.992;2023-07-13T15:42:40;6.10;;;3.03;;
68216;SDS011;55037;52.354;4.992;2023-07-13T15:45:19;5.50;;;2.80;;
68216;SDS011;55037;52.354;4.992;2023-07-13T15:47:51;5.30;;;2.60;;
68216;SDS011;55037;52.354;4.992;2023-07-13T15:50:19;6.57;;;2.88;;
68216;SDS011;55037;52.354;4.992;2023-07-13T15:52:51;5.72;;;2.80;;